Terminal Aerodrome Forecast
Issued by NWS

Home | Current Version | Previous Version | Text Only | Print | Product List | Glossary On
Versions: 1 2 3 4 5 6 7 8 9 10 11 12 13 14
000
FTUS43 KOAX 261144
TAFBFF
TAF
KBFF 261144Z 2612/2712 33008KT P6SM -SN BKN025 BKN050 OVC080
      TEMPO 2612/2616 3SM -SN OVC015
     FM262000 VRB06KT P6SM BKN050 OVC100
     FM270100 12006KT P6SM BKN100=

USA.gov is the U.S. government's official web portal to all federal, state and local government web resources and services.